Time;durP1;ratioP1;P1;durP2;ratioP2;P2;SDS_P1;SDS_P2;PMS_P1;PMS_P2;Temp;Humidity;BMP_temperature;BMP_pressure;BME280_temperature;BME280_humidity;BME280_pressure;Samples;Min_cycle;Max_cycle;Signal;HPM_P1;HPM_P2
2024/01/12 00:02:03;;;;;;;84.77;37.87;;;1.90;59.70;;;;;;5089813;28;20364;-71
2024/01/12 00:04:29;;;;;;;79.90;37.10;;;1.70;62.50;;;;;;5090934;28;20530;-72
2024/01/12 00:06:54;;;;;;;76.22;36.35;;;1.90;63.20;;;;;;5090285;28;20390;-72
2024/01/12 00:09:20;;;;;;;77.45;37.20;;;2.00;60.90;;;;;;5087892;28;20384;-71
2024/01/12 00:11:46;;;;;;;78.90;37.83;;;1.80;63.10;;;;;;5090706;28;20795;-71
2024/01/12 00:14:14;;;;;;;80.70;37.92;;;1.90;61.90;;;;;;5081280;28;20450;-72
2024/01/12 00:16:44;;;;;;;78.47;37.83;;;1.80;64.00;;;;;;5087580;28;20909;-72
2024/01/12 00:19:10;;;;;;;81.65;38.15;;;2.00;61.50;;;;;;5083629;28;20490;-72
2024/01/12 00:21:35;;;;;;;82.20;37.65;;;2.10;61.20;;;;;;5081230;28;20927;-72
2024/01/12 00:24:01;;;;;;;77.50;36.90;;;2.20;58.30;;;;;;5082926;28;20394;-72
2024/01/12 00:26:27;;;;;;;84.73;37.80;;;2.10;58.70;;;;;;5082049;28;20384;-72
2024/01/12 00:28:52;;;;;;;85.57;38.47;;;1.80;61.40;;;;;;5081345;28;20530;-72
2024/01/12 00:31:18;;;;;;;86.03;39.90;;;1.90;61.00;;;;;;5081280;28;20384;-72
2024/01/12 00:33:43;;;;;;;88.35;39.15;;;2.00;61.10;;;;;;5085262;28;20376;-72
2024/01/12 00:36:09;;;;;;;89.53;41.50;;;2.00;59.90;;;;;;5087282;28;20858;-72
2024/01/12 00:38:34;;;;;;;88.67;40.93;;;2.00;60.30;;;;;;5086693;28;20989;-72
2024/01/12 00:41:00;;;;;;;88.67;41.20;;;2.00;61.20;;;;;;5089949;28;20380;-72
2024/01/12 00:43:25;;;;;;;91.57;40.70;;;2.00;61.50;;;;;;5091148;28;20379;-71
2024/01/12 00:45:51;;;;;;;92.60;42.00;;;1.90;62.20;;;;;;5090614;28;20460;-71
2024/01/12 00:48:16;;;;;;;95.67;40.30;;;2.00;61.70;;;;;;5091539;28;20411;-71
2024/01/12 00:50:43;;;;;;;97.63;43.73;;;2.00;61.60;;;;;;5088718;28;20391;-72
2024/01/12 00:53:09;;;;;;;93.20;42.67;;;1.80;62.90;;;;;;5087284;28;20379;-71
2024/01/12 00:55:34;;;;;;;93.10;40.43;;;1.90;63.90;;;;;;5083032;28;20398;-71
2024/01/12 00:58:00;;;;;;;93.80;42.07;;;2.00;62.50;;;;;;5084100;28;20399;-69
2024/01/12 01:00:26;;;;;;;98.50;41.73;;;2.10;61.00;;;;;;5084495;28;20410;-70
2024/01/12 01:02:51;;;;;;;100.95;42.22;;;1.90;61.20;;;;;;5065309;28;20497;-70
2024/01/12 01:05:17;;;;;;;103.93;43.05;;;1.70;64.80;;;;;;5085592;28;20395;-71
2024/01/12 01:07:42;;;;;;;96.13;42.70;;;1.90;63.60;;;;;;5086134;28;20392;-73
2024/01/12 01:10:08;;;;;;;94.70;42.37;;;1.70;65.30;;;;;;5084980;28;20414;-73
2024/01/12 01:12:34;;;;;;;102.55;44.25;;;1.70;67.40;;;;;;5079363;28;20380;-71
2024/01/12 01:15:00;;;;;;;101.43;43.90;;;1.70;66.40;;;;;;5071734;28;20438;-70
2024/01/12 01:17:25;;;;;;;100.00;44.30;;;1.80;67.40;;;;;;5072326;28;20404;-69
2024/01/12 01:19:51;;;;;;;88.53;42.17;;;2.20;62.00;;;;;;5053992;28;20394;-70
2024/01/12 01:22:16;;;;;;;98.93;44.15;;;2.20;60.10;;;;;;5072914;28;20468;-72
2024/01/12 01:24:44;;;;;;;93.77;42.70;;;2.00;61.50;;;;;;5071437;28;21084;-72
2024/01/12 01:27:09;;;;;;;96.77;41.00;;;2.10;62.20;;;;;;5072871;28;20766;-70
2024/01/12 01:29:35;;;;;;;100.75;42.90;;;2.00;62.00;;;;;;5073884;28;20426;-72
2024/01/12 01:32:00;;;;;;;111.13;44.63;;;2.00;62.80;;;;;;5078919;28;20395;-72
2024/01/12 01:34:26;;;;;;;100.28;44.47;;;1.80;64.50;;;;;;5083780;28;20421;-72
2024/01/12 01:36:53;;;;;;;105.17;43.70;;;1.90;65.40;;;;;;5072510;28;20498;-72
2024/01/12 01:39:18;;;;;;;106.75;46.60;;;1.90;66.30;;;;;;5086972;28;20623;-72
2024/01/12 01:41:44;;;;;;;119.77;47.07;;;1.80;66.20;;;;;;5065689;28;20873;-71
2024/01/12 01:44:09;;;;;;;113.67;44.00;;;1.80;67.50;;;;;;5081113;28;20384;-69
2024/01/12 01:46:35;;;;;;;118.10;45.80;;;1.80;68.10;;;;;;5071543;28;20388;-70
2024/01/12 01:49:01;;;;;;;116.20;48.13;;;2.00;65.10;;;;;;5075484;28;20897;-70
2024/01/12 01:51:27;;;;;;;125.57;48.20;;;2.00;65.70;;;;;;5074766;28;20380;-72
2024/01/12 01:53:53;;;;;;;122.32;46.58;;;1.90;65.00;;;;;;5065840;28;20384;-70
2024/01/12 01:56:19;;;;;;;116.60;46.17;;;2.00;66.40;;;;;;5075476;28;20506;-71
2024/01/12 01:58:45;;;;;;;118.32;46.53;;;2.40;61.50;;;;;;5071432;28;20454;-71
2024/01/12 02:01:11;;;;;;;131.60;47.87;;;2.50;59.40;;;;;;5052964;28;20384;-71
2024/01/12 02:03:39;;;;;;;121.47;47.05;;;2.40;59.70;;;;;;5070885;28;20453;-71
2024/01/12 02:06:05;;;;;;;126.50;48.83;;;2.40;59.70;;;;;;5052842;28;20485;-71
2024/01/12 02:08:30;;;;;;;124.95;48.72;;;2.30;60.80;;;;;;5070828;28;20762;-71
2024/01/12 02:10:56;;;;;;;142.00;51.13;;;2.00;64.10;;;;;;5070964;28;20380;-70
2024/01/12 02:13:22;;;;;;;135.07;50.72;;;2.00;66.50;;;;;;5070773;28;20422;-70
2024/01/12 02:15:48;;;;;;;127.95;48.30;;;2.20;63.30;;;;;;5071879;28;20410;-70
2024/01/12 02:18:14;;;;;;;133.30;48.53;;;2.20;64.60;;;;;;5072184;28;20890;-70
2024/01/12 02:20:41;;;;;;;139.63;50.25;;;2.20;64.10;;;;;;5071216;28;20386;-70
2024/01/12 02:23:07;;;;;;;134.50;50.03;;;2.00;66.00;;;;;;5084576;22;20391;-76
2024/01/12 02:25:32;;;;;;;134.00;50.15;;;1.90;66.90;;;;;;5071724;28;20379;-76
2024/01/12 02:27:58;;;;;;;133.80;50.17;;;1.80;67.60;;;;;;5070845;28;20874;-75
2024/01/12 02:30:24;;;;;;;134.37;50.67;;;1.80;68.90;;;;;;5070375;28;20424;-75
2024/01/12 02:32:49;;;;;;;132.07;50.35;;;1.80;69.20;;;;;;5070717;28;20502;-75
2024/01/12 02:35:15;;;;;;;119.20;48.00;;;1.90;70.00;;;;;;5070876;28;20379;-76
2024/01/12 02:37:40;;;;;;;124.28;47.63;;;2.10;68.10;;;;;;5070578;28;20407;-76
2024/01/12 02:40:06;;;;;;;113.88;45.83;;;2.50;62.30;;;;;;5070672;28;20384;-76
2024/01/12 02:42:32;;;;;;;118.82;46.95;;;2.50;60.10;;;;;;5054782;28;20392;-75
2024/01/12 02:44:57;;;;;;;111.43;47.47;;;2.40;61.10;;;;;;5070637;28;20433;-75
2024/01/12 02:47:23;;;;;;;117.32;48.78;;;2.20;63.40;;;;;;5070565;28;20454;-76
2024/01/12 02:49:49;;;;;;;134.27;51.30;;;2.10;65.30;;;;;;5070819;28;20777;-75
2024/01/12 02:52:15;;;;;;;126.25;51.05;;;2.00;66.90;;;;;;5055337;28;20471;-75
2024/01/12 02:54:40;;;;;;;130.87;52.07;;;1.90;67.90;;;;;;5074564;28;20860;-76
2024/01/12 02:57:06;;;;;;;112.63;47.90;;;2.00;68.80;;;;;;5074032;28;20466;-76
2024/01/12 02:59:31;;;;;;;121.10;49.53;;;2.00;68.80;;;;;;5073365;28;20470;-75
2024/01/12 03:01:57;;;;;;;114.57;46.60;;;2.00;68.30;;;;;;5073329;28;20457;-76
2024/01/12 03:04:22;;;;;;;117.15;47.55;;;2.20;66.00;;;;;;5055659;28;20407;-75
2024/01/12 03:06:48;;;;;;;126.68;49.05;;;2.20;66.60;;;;;;5073610;28;20436;-75
2024/01/12 03:09:14;;;;;;;118.03;46.73;;;2.10;66.70;;;;;;5073290;28;20430;-77
2024/01/12 03:11:39;;;;;;;98.83;42.03;;;2.40;64.40;;;;;;5073358;28;20383;-76
2024/01/12 03:14:05;;;;;;;105.37;43.70;;;2.70;60.30;;;;;;5073091;28;20470;-77
2024/01/12 03:16:30;;;;;;;107.27;44.77;;;2.70;59.80;;;;;;5073090;28;20417;-75
2024/01/12 03:18:56;;;;;;;110.07;45.50;;;2.70;59.30;;;;;;5072947;28;20412;-75
2024/01/12 03:21:21;;;;;;;112.50;46.03;;;2.70;58.80;;;;;;5072940;28;20387;-76
2024/01/12 03:23:47;;;;;;;121.85;46.47;;;2.70;59.00;;;;;;5072756;28;20410;-76
2024/01/12 03:26:13;;;;;;;112.00;46.97;;;2.40;61.70;;;;;;5072969;28;20383;-76
2024/01/12 03:28:39;;;;;;;118.95;47.75;;;2.50;61.30;;;;;;5072724;28;20466;-76
2024/01/12 03:31:06;;;;;;;114.30;46.70;;;2.30;62.30;;;;;;5072775;28;20466;-76
2024/01/12 03:33:32;;;;;;;118.03;47.20;;;2.30;62.50;;;;;;5072666;28;20446;-76
2024/01/12 03:35:57;;;;;;;124.60;49.10;;;2.20;64.10;;;;;;5072866;28;20415;-76
2024/01/12 03:38:23;;;;;;;118.47;49.00;;;2.20;64.60;;;;;;5072343;28;20395;-76
2024/01/12 03:40:49;;;;;;;123.88;49.40;;;2.20;65.40;;;;;;5072788;28;20866;-74
2024/01/12 03:43:14;;;;;;;122.35;48.15;;;2.10;67.20;;;;;;5072577;28;20419;-75
2024/01/12 03:45:40;;;;;;;117.53;49.13;;;2.20;67.70;;;;;;5072545;28;20380;-74
2024/01/12 03:48:06;;;;;;;125.67;49.40;;;2.30;66.30;;;;;;5072303;28;20480;-76
2024/01/12 03:50:32;;;;;;;119.07;48.30;;;2.40;64.10;;;;;;5072495;28;20860;-76
2024/01/12 03:52:57;;;;;;;118.83;46.33;;;2.30;65.10;;;;;;5072118;28;20492;-75
2024/01/12 03:55:23;;;;;;;121.70;45.87;;;2.40;65.00;;;;;;5072309;28;20746;-76
2024/01/12 03:57:49;;;;;;;124.97;48.63;;;2.60;62.70;;;;;;5054107;28;20428;-75
2024/01/12 04:00:15;;;;;;;120.60;47.30;;;2.40;62.50;;;;;;5072152;28;20904;-77
2024/01/12 04:02:41;;;;;;;117.30;47.00;;;2.40;64.30;;;;;;5070734;28;20424;-74
2024/01/12 04:05:07;;;;;;;124.38;47.15;;;2.50;65.00;;;;;;5072106;28;20445;-76
2024/01/12 04:07:32;;;;;;;122.97;46.45;;;2.80;61.30;;;;;;5072920;28;20448;-76
2024/01/12 04:09:58;;;;;;;122.43;47.90;;;2.90;59.60;;;;;;5073417;28;20391;-76
2024/01/12 04:12:23;;;;;;;123.67;46.70;;;2.80;60.00;;;;;;5073575;28;20390;-76
2024/01/12 04:14:49;;;;;;;121.70;47.30;;;2.80;59.90;;;;;;5071805;28;20464;-74
2024/01/12 04:17:14;;;;;;;114.60;45.70;;;2.70;61.20;;;;;;5071912;28;20400;-74
2024/01/12 04:19:40;;;;;;;120.43;46.03;;;2.80;60.00;;;;;;5072086;28;20384;-76
2024/01/12 04:22:05;;;;;;;133.30;46.27;;;2.80;60.00;;;;;;5071710;28;20881;-76
2024/01/12 04:24:31;;;;;;;125.70;45.45;;;2.70;61.00;;;;;;5071844;28;20398;-74
2024/01/12 04:26:57;;;;;;;122.05;43.47;;;2.70;60.30;;;;;;5072532;28;20391;-76
2024/01/12 04:29:22;;;;;;;129.63;46.70;;;2.70;60.70;;;;;;5071783;28;20386;-75
2024/01/12 04:31:48;;;;;;;130.30;47.43;;;2.70;62.00;;;;;;5072235;28;20383;-75
2024/01/12 04:34:15;;;;;;;131.48;47.15;;;2.60;63.00;;;;;;5074769;28;20391;-75
2024/01/12 04:36:41;;;;;;;129.13;46.57;;;2.60;62.60;;;;;;5063652;28;20409;-75
2024/01/12 04:39:06;;;;;;;137.75;48.58;;;2.60;63.40;;;;;;5089145;28;20934;-75
2024/01/12 04:41:32;;;;;;;124.53;46.90;;;2.60;63.60;;;;;;5097972;28;20390;-75
2024/01/12 04:43:58;;;;;;;124.15;47.22;;;2.60;63.20;;;;;;5093275;28;20386;-75
2024/01/12 04:46:23;;;;;;;129.77;46.50;;;2.60;61.90;;;;;;5074372;28;20395;-74
2024/01/12 04:48:49;;;;;;;132.40;49.13;;;2.60;62.90;;;;;;5072993;28;20390;-77
2024/01/12 04:51:14;;;;;;;136.40;47.87;;;2.60;64.60;;;;;;5071876;28;20388;-76
2024/01/12 04:53:40;;;;;;;130.20;46.57;;;2.70;62.70;;;;;;5071760;28;20387;-74
2024/01/12 04:56:06;;;;;;;127.13;45.60;;;2.60;64.70;;;;;;5037022;28;20376;-73
2024/01/12 04:58:31;;;;;;;140.52;47.90;;;2.50;63.80;;;;;;5087212;28;20429;-75
2024/01/12 05:00:57;;;;;;;137.38;48.85;;;2.40;65.90;;;;;;5090232;28;20424;-75
2024/01/12 05:03:22;;;;;;;141.88;48.63;;;2.60;64.50;;;;;;5091474;28;20425;-75
2024/01/12 05:05:48;;;;;;;126.68;47.05;;;2.50;65.60;;;;;;5082403;28;20387;-75
2024/01/12 05:08:13;;;;;;;132.45;47.72;;;2.30;66.50;;;;;;5070327;28;20432;-77
2024/01/12 05:10:39;;;;;;;127.63;49.00;;;2.20;68.60;;;;;;5070519;28;20420;-74
2024/01/12 05:13:04;;;;;;;151.70;50.88;;;2.10;69.90;;;;;;5070905;28;20394;-74
2024/01/12 05:15:30;;;;;;;140.52;48.58;;;2.30;69.20;;;;;;5070049;28;20391;-74
2024/01/12 05:17:55;;;;;;;135.73;47.97;;;2.30;67.20;;;;;;5070693;28;20403;-75
2024/01/12 05:20:21;;;;;;;135.13;46.27;;;2.40;66.90;;;;;;5072898;28;20387;-74
2024/01/12 05:22:47;;;;;;;136.17;48.60;;;2.40;66.30;;;;;;5074442;28;20384;-75
2024/01/12 05:25:13;;;;;;;127.72;47.08;;;2.50;66.60;;;;;;5072969;28;20470;-75
2024/01/12 05:27:38;;;;;;;137.70;48.72;;;2.40;66.50;;;;;;5070594;28;20491;-75
2024/01/12 05:30:05;;;;;;;141.10;46.43;;;2.30;68.40;;;;;;5070678;28;20400;-75
2024/01/12 05:32:31;;;;;;;126.75;46.95;;;2.70;66.30;;;;;;5070651;28;20750;-74
2024/01/12 05:34:56;;;;;;;124.33;45.17;;;2.70;63.70;;;;;;5070645;28;20732;-74
2024/01/12 05:37:22;;;;;;;136.23;47.20;;;2.60;63.50;;;;;;5070629;28;20448;-75
2024/01/12 05:39:47;;;;;;;128.60;47.13;;;2.70;64.40;;;;;;5070701;28;20390;-75
2024/01/12 05:42:13;;;;;;;121.57;45.72;;;2.80;61.50;;;;;;5070351;28;20885;-76
2024/01/12 05:44:38;;;;;;;128.10;45.40;;;2.50;63.70;;;;;;5070458;28;20418;-76
2024/01/12 05:47:04;;;;;;;117.57;45.03;;;2.60;65.30;;;;;;5070490;28;20394;-76
2024/01/12 05:49:30;;;;;;;117.40;44.42;;;2.80;64.10;;;;;;5071257;28;20383;-75
2024/01/12 05:51:56;;;;;;;117.60;45.33;;;3.00;60.40;;;;;;5071509;28;20390;-76
2024/01/12 05:54:21;;;;;;;126.88;45.55;;;2.80;60.50;;;;;;5071427;28;20387;-75
2024/01/12 05:56:47;;;;;;;124.87;45.80;;;2.70;63.50;;;;;;5070704;28;20424;-76
2024/01/12 05:59:13;;;;;;;138.27;47.03;;;2.60;64.10;;;;;;5070409;28;20416;-73
2024/01/12 06:01:39;;;;;;;132.40;44.73;;;2.60;64.10;;;;;;5070080;28;20418;-75
2024/01/12 06:04:04;;;;;;;126.45;47.33;;;2.40;66.00;;;;;;5069701;28;20376;-75
2024/01/12 06:06:30;;;;;;;123.25;44.13;;;2.60;66.90;;;;;;5070049;28;20490;-75
2024/01/12 06:08:55;;;;;;;120.40;44.83;;;2.60;65.80;;;;;;5051906;28;20411;-75
2024/01/12 06:11:21;;;;;;;129.10;46.40;;;2.40;66.60;;;;;;5069984;28;20846;-75
2024/01/12 06:13:47;;;;;;;134.13;47.97;;;2.40;68.10;;;;;;5070202;28;20371;-75
2024/01/12 06:16:12;;;;;;;130.43;45.80;;;2.40;69.20;;;;;;5072458;28;20402;-75
2024/01/12 06:18:40;;;;;;;138.20;48.87;;;2.60;68.00;;;;;;5070200;28;20465;-74
2024/01/12 06:21:06;;;;;;;138.52;46.95;;;2.70;67.30;;;;;;5070946;28;20380;-76
2024/01/12 06:23:31;;;;;;;122.07;45.00;;;3.00;63.40;;;;;;5070272;28;20845;-75
2024/01/12 06:25:57;;;;;;;143.03;50.93;;;2.70;64.10;;;;;;5071393;28;20380;-76
2024/01/12 06:28:22;;;;;;;128.77;45.57;;;2.60;65.20;;;;;;5074866;28;20474;-76
2024/01/12 06:30:48;;;;;;;123.80;44.37;;;2.50;67.00;;;;;;5074178;28;20384;-73
2024/01/12 06:33:14;;;;;;;107.70;41.93;;;3.00;62.70;;;;;;5073968;28;20384;-76
2024/01/12 06:35:40;;;;;;;126.53;45.83;;;3.00;61.50;;;;;;5076323;28;20387;-76
2024/01/12 06:38:05;;;;;;;134.50;44.77;;;2.70;62.90;;;;;;5074471;28;21016;-75
2024/01/12 06:40:31;;;;;;;133.23;44.70;;;2.60;64.50;;;;;;5075374;28;20383;-74
2024/01/12 06:42:56;;;;;;;138.10;46.90;;;2.50;66.10;;;;;;5079925;28;20372;-75
2024/01/12 06:45:22;;;;;;;136.65;46.22;;;2.30;67.80;;;;;;5074601;28;20529;-76
2024/01/12 06:47:48;;;;;;;118.78;45.05;;;2.60;68.40;;;;;;5075751;28;20510;-75
2024/01/12 06:50:13;;;;;;;125.18;45.50;;;3.10;62.70;;;;;;5074864;28;20391;-74
2024/01/12 06:52:39;;;;;;;122.80;44.97;;;3.10;60.80;;;;;;5073235;28;20602;-74
2024/01/12 06:55:05;;;;;;;127.90;45.43;;;2.80;63.00;;;;;;5073771;28;20479;-75
2024/01/12 06:57:31;;;;;;;147.82;49.33;;;2.60;66.10;;;;;;5073837;28;20765;-74
2024/01/12 06:59:57;;;;;;;152.60;51.70;;;2.50;68.60;;;;;;5073505;28;20395;-74
2024/01/12 07:02:22;;;;;;;139.65;46.83;;;2.40;69.90;;;;;;5073690;28;20842;-74
2024/01/12 07:04:48;;;;;;;135.57;48.78;;;2.50;70.10;;;;;;5073480;28;20387;-74
2024/01/12 07:07:14;;;;;;;140.40;47.20;;;2.50;70.30;;;;;;5073143;28;20433;-76
2024/01/12 07:09:40;;;;;;;128.33;46.20;;;2.40;70.90;;;;;;5072817;28;20375;-75
2024/01/12 07:12:06;;;;;;;139.43;47.85;;;2.40;71.10;;;;;;5073210;28;20777;-74
2024/01/12 07:14:31;;;;;;;133.10;45.53;;;2.30;71.40;;;;;;5072888;28;20391;-77
2024/01/12 07:16:57;;;;;;;134.80;46.63;;;2.30;71.90;;;;;;5073157;28;20410;-74
2024/01/12 07:19:22;;;;;;;133.30;46.50;;;2.30;72.20;;;;;;5072974;28;20406;-76
2024/01/12 07:21:48;;;;;;;123.65;44.63;;;2.40;72.40;;;;;;5073274;28;20422;-74
2024/01/12 07:24:14;;;;;;;133.68;46.55;;;2.40;72.30;;;;;;5072892;28;20807;-74
2024/01/12 07:26:39;;;;;;;121.97;44.80;;;2.50;71.40;;;;;;5073164;28;20775;-75
2024/01/12 07:29:05;;;;;;;121.53;43.92;;;3.00;67.60;;;;;;5072759;28;20702;-74
2024/01/12 07:31:33;;;;;;;124.17;43.20;;;3.00;63.90;;;;;;5073103;28;20396;-75
2024/01/12 07:33:58;;;;;;;119.85;43.40;;;2.80;65.80;;;;;;5074232;28;20743;-74
2024/01/12 07:36:24;;;;;;;120.87;42.67;;;2.80;68.20;;;;;;5077696;28;20390;-75
2024/01/12 07:38:49;;;;;;;115.05;40.70;;;3.20;64.40;;;;;;5057755;28;20406;-76
2024/01/12 07:41:15;;;;;;;106.93;40.33;;;3.20;62.20;;;;;;5076441;28;20459;-76
2024/01/12 07:43:40;;;;;;;91.10;36.60;;;3.30;61.00;;;;;;5074671;28;20375;-76
2024/01/12 07:46:06;;;;;;;89.85;34.38;;;3.10;61.20;;;;;;5075290;28;20391;-74
2024/01/12 07:48:31;;;;;;;82.78;33.75;;;3.10;62.70;;;;;;5074120;28;20388;-75
2024/01/12 07:50:57;;;;;;;83.43;32.40;;;3.10;63.80;;;;;;5072716;28;20388;-75
2024/01/12 07:53:22;;;;;;;82.80;31.50;;;2.90;65.10;;;;;;5072504;28;20471;-76
2024/01/12 07:55:49;;;;;;;72.70;29.50;;;3.10;65.10;;;;;;5072933;28;20384;-75
2024/01/12 07:58:18;;;;;;;79.55;32.72;;;3.00;64.80;;;;;;5072476;28;20952;-75
2024/01/12 08:00:44;;;;;;;91.90;33.00;;;3.00;66.20;;;;;;5072759;28;20884;-75
2024/01/12 08:03:09;;;;;;;80.78;32.13;;;3.00;65.20;;;;;;5073285;28;20432;-75
2024/01/12 08:05:35;;;;;;;82.87;32.20;;;3.20;64.90;;;;;;5073203;28;20372;-75
2024/01/12 08:08:00;;;;;;;83.70;32.70;;;3.30;63.20;;;;;;5074764;28;20375;-76
2024/01/12 08:10:26;;;;;;;100.20;38.63;;;3.40;61.80;;;;;;5073161;28;20379;-75
2024/01/12 08:12:51;;;;;;;108.10;39.43;;;3.40;60.30;;;;;;5072612;28;20387;-75
2024/01/12 08:15:17;;;;;;;112.37;41.07;;;3.20;60.80;;;;;;5072812;28;20854;-74
2024/01/12 08:17:43;;;;;;;113.00;41.13;;;3.30;61.40;;;;;;5057127;28;20408;-75
2024/01/12 08:20:09;;;;;;;121.72;42.08;;;3.30;60.70;;;;;;5075382;28;20384;-74
2024/01/12 08:22:34;;;;;;;122.72;44.10;;;3.20;61.30;;;;;;5073503;28;20423;-75
2024/01/12 08:25:00;;;;;;;118.77;45.27;;;3.20;62.60;;;;;;5087165;22;20470;-73
2024/01/12 08:27:26;;;;;;;132.68;44.80;;;3.20;63.30;;;;;;5055588;28;20395;-73
2024/01/12 08:29:52;;;;;;;131.13;45.35;;;3.10;63.20;;;;;;5073232;28;20388;-72
2024/01/12 08:32:18;;;;;;;117.13;42.83;;;3.10;63.40;;;;;;5073122;28;20444;-72
2024/01/12 08:34:43;;;;;;;129.35;45.75;;;3.00;64.50;;;;;;5075232;28;20380;-73
2024/01/12 08:37:09;;;;;;;120.13;45.77;;;3.00;65.30;;;;;;5055957;28;20431;-72
2024/01/12 08:39:34;;;;;;;130.50;43.90;;;3.00;65.50;;;;;;5075701;28;20386;-71
2024/01/12 08:42:00;;;;;;;131.13;46.03;;;3.00;65.40;;;;;;5073630;28;20376;-72
2024/01/12 08:44:26;;;;;;;125.10;46.20;;;2.90;65.60;;;;;;5055497;28;20414;-72
2024/01/12 08:46:53;;;;;;;134.90;43.60;;;3.00;66.00;;;;;;5071750;28;20391;-72
2024/01/12 08:49:19;;;;;;;138.00;46.33;;;2.90;66.20;;;;;;5053569;28;20762;-73
2024/01/12 08:51:44;;;;;;;137.75;48.20;;;2.90;66.70;;;;;;5070796;28;20387;-71
2024/01/12 08:54:10;;;;;;;126.50;43.50;;;2.90;67.30;;;;;;5071186;28;20445;-71
2024/01/12 08:56:36;;;;;;;130.13;44.80;;;2.90;67.70;;;;;;5070781;28;20482;-72
2024/01/12 08:59:01;;;;;;;132.55;45.90;;;2.90;68.00;;;;;;5070690;28;20482;-72
2024/01/12 09:01:27;;;;;;;131.43;45.60;;;2.90;67.80;;;;;;5070928;28;20380;-72
2024/01/12 09:03:52;;;;;;;148.40;47.00;;;2.80;69.30;;;;;;5071090;28;20390;-72
2024/01/12 09:06:18;;;;;;;134.45;45.88;;;3.00;69.70;;;;;;5070954;28;20474;-70
2024/01/12 09:08:43;;;;;;;149.40;46.77;;;3.00;68.20;;;;;;5070744;28;20387;-73
2024/01/12 09:11:11;;;;;;;139.37;47.97;;;2.90;70.00;;;;;;5070838;28;20401;-73
2024/01/12 09:13:37;;;;;;;134.63;46.40;;;3.00;71.30;;;;;;5071194;28;20430;-72
2024/01/12 09:16:03;;;;;;;144.02;47.20;;;2.90;71.50;;;;;;5052571;28;20821;-73
2024/01/12 09:18:29;;;;;;;144.98;47.60;;;2.80;74.10;;;;;;5070898;28;20446;-71
2024/01/12 09:20:54;;;;;;;147.70;47.25;;;2.90;75.30;;;;;;5070400;28;20873;-69
2024/01/12 09:23:20;;;;;;;142.35;46.75;;;3.20;72.40;;;;;;5070477;28;20387;-73
2024/01/12 09:25:47;;;;;;;143.93;46.60;;;3.40;67.20;;;;;;5070886;28;20400;-73
2024/01/12 09:28:13;;;;;;;128.23;45.60;;;3.50;64.00;;;;;;5070416;28;20386;-70
2024/01/12 09:30:39;;;;;;;143.45;44.50;;;3.50;62.80;;;;;;5070282;28;20945;-71
2024/01/12 09:33:05;;;;;;;146.48;48.85;;;3.50;63.20;;;;;;5069973;28;20389;-73
2024/01/12 09:35:30;;;;;;;143.48;47.30;;;3.20;65.30;;;;;;5070458;28;20388;-71
2024/01/12 09:37:56;;;;;;;145.03;45.93;;;3.00;69.20;;;;;;5070850;28;20438;-73
2024/01/12 09:40:22;;;;;;;149.00;48.50;;;2.90;71.60;;;;;;5071468;28;20391;-73
2024/01/12 09:42:49;;;;;;;150.65;48.28;;;3.10;72.70;;;;;;5070457;28;20376;-72
2024/01/12 09:45:16;;;;;;;129.82;45.20;;;3.40;64.60;;;;;;5070043;28;20884;-72
2024/01/12 09:47:42;;;;;;;134.07;44.40;;;3.40;64.40;;;;;;5070153;28;20387;-72
2024/01/12 09:50:10;;;;;;;132.47;46.40;;;3.50;64.40;;;;;;5070416;28;20957;-72
2024/01/12 09:52:36;;;;;;;133.60;46.92;;;3.40;63.70;;;;;;5069742;28;20376;-72
2024/01/12 09:55:02;;;;;;;129.80;46.03;;;3.40;64.40;;;;;;5070816;28;20380;-73
2024/01/12 09:57:28;;;;;;;135.30;46.03;;;3.40;65.10;;;;;;5070480;28;20478;-73
2024/01/12 09:59:55;;;;;;;135.95;45.53;;;3.40;65.00;;;;;;5053847;28;20788;-73
2024/01/12 10:02:21;;;;;;;133.82;47.90;;;3.30;66.40;;;;;;5075445;28;20395;-71
2024/01/12 10:04:46;;;;;;;127.38;46.10;;;3.30;66.60;;;;;;5075080;28;20386;-73
2024/01/12 10:07:12;;;;;;;130.68;46.92;;;3.50;64.80;;;;;;5076465;28;20371;-73
2024/01/12 10:09:37;;;;;;;118.20;44.30;;;3.60;62.50;;;;;;5075048;28;20807;-73
2024/01/12 10:12:03;;;;;;;123.83;46.07;;;3.60;61.90;;;;;;5074470;28;20441;-72
2024/01/12 10:14:29;;;;;;;137.27;45.45;;;3.60;61.90;;;;;;5075763;28;20387;-72
2024/01/12 10:16:55;;;;;;;133.45;47.10;;;3.60;62.00;;;;;;5075867;28;20407;-72
2024/01/12 10:19:21;;;;;;;128.85;46.97;;;3.30;62.90;;;;;;5074801;28;20372;-73
2024/01/12 10:21:47;;;;;;;127.47;46.22;;;3.40;66.30;;;;;;5074696;28;20873;-74
2024/01/12 10:24:16;;;;;;;118.80;43.50;;;3.30;67.30;;;;;;5073977;28;20496;-73
2024/01/12 10:26:42;;;;;;;119.78;43.55;;;3.50;65.30;;;;;;5056367;28;20909;-73
2024/01/12 10:29:08;;;;;;;115.32;42.33;;;3.50;64.00;;;;;;5074136;28;20388;-72
2024/01/12 10:31:39;;;;;;;116.57;43.80;;;3.60;62.20;;;;;;5055955;28;20757;-72
2024/01/12 10:34:08;;;;;;;106.82;43.88;;;3.50;63.70;;;;;;5074046;28;20458;-71
2024/01/12 10:36:37;;;;;;;93.13;37.83;;;3.40;65.70;;;;;;5074271;28;20379;-73
2024/01/12 10:39:03;;;;;;;100.18;39.90;;;3.50;60.40;;;;;;5074630;28;20417;-72
2024/01/12 10:41:31;;;;;;;90.07;38.03;;;3.40;62.10;;;;;;5075492;28;20885;-72
2024/01/12 10:43:59;;;;;;;99.32;40.03;;;3.40;61.50;;;;;;5074934;28;20736;-74
2024/01/12 10:46:36;;;;;;;100.20;41.17;;;3.40;62.90;;;;;;5073774;28;20380;-73
2024/01/12 10:49:13;;;;;;;103.73;42.23;;;3.50;61.80;;;;;;5074126;28;20421;-72
2024/01/12 10:51:43;;;;;;;106.13;43.08;;;3.50;61.80;;;;;;5074203;28;20441;-72
2024/01/12 10:54:13;;;;;;;113.00;44.97;;;3.50;62.60;;;;;;5074028;28;20407;-72
2024/01/12 10:56:41;;;;;;;110.70;44.70;;;3.50;62.90;;;;;;5074922;28;20745;-73
2024/01/12 10:59:07;;;;;;;117.03;45.53;;;3.60;61.40;;;;;;5073327;28;20866;-72
2024/01/12 11:01:36;;;;;;;112.90;44.40;;;3.50;60.80;;;;;;5073255;28;20376;-72
2024/01/12 11:04:04;;;;;;;106.22;44.47;;;3.60;60.60;;;;;;5073551;28;20754;-71
2024/01/12 11:06:30;;;;;;;110.28;42.63;;;3.50;61.10;;;;;;5073444;28;20460;-72
2024/01/12 11:08:57;;;;;;;100.53;42.72;;;3.40;62.70;;;;;;5073279;28;20388;-72
2024/01/12 11:11:29;;;;;;;107.68;41.03;;;3.40;62.30;;;;;;5072562;28;20376;-72
2024/01/12 11:13:55;;;;;;;111.75;44.03;;;3.30;63.80;;;;;;5073932;28;20392;-73
2024/01/12 11:16:21;;;;;;;97.93;40.65;;;3.10;65.70;;;;;;5074605;28;20811;-72
2024/01/12 11:18:47;;;;;;;107.83;44.03;;;3.20;68.00;;;;;;5073451;28;20435;-71
2024/01/12 11:21:21;;;;;;;99.75;42.33;;;3.20;66.70;;;;;;5054847;28;20384;-72
2024/01/12 11:23:47;;;;;;;98.10;42.63;;;3.20;68.20;;;;;;5072879;28;20819;-71
2024/01/12 11:26:13;;;;;;;106.45;46.67;;;3.30;68.90;;;;;;5072936;28;20418;-72
2024/01/12 11:28:39;;;;;;;103.90;42.80;;;3.30;67.40;;;;;;5072838;28;20886;-71
2024/01/12 11:31:05;;;;;;;96.03;42.03;;;3.50;66.10;;;;;;5054653;28;20479;-72
2024/01/12 11:33:38;;;;;;;95.30;39.30;;;3.50;64.00;;;;;;5072761;28;20462;-71
2024/01/12 11:36:09;;;;;;;85.35;39.22;;;3.80;61.60;;;;;;5072495;28;20991;-73
2024/01/12 11:38:42;;;;;;;90.63;40.22;;;3.80;61.30;;;;;;5072215;28;20723;-73
2024/01/12 11:41:12;;;;;;;108.75;42.45;;;3.70;61.30;;;;;;5072724;28;20742;-73
2024/01/12 11:43:38;;;;;;;85.10;39.50;;;3.80;61.70;;;;;;5073711;28;20404;-71
2024/01/12 11:46:04;;;;;;;92.72;40.65;;;3.80;60.30;;;;;;5054104;28;20390;-75
2024/01/12 11:48:31;;;;;;;89.50;40.30;;;3.80;60.30;;;;;;5072337;28;20433;-73
2024/01/12 11:50:57;;;;;;;94.27;38.10;;;3.90;60.20;;;;;;5055662;28;20373;-72
2024/01/12 11:53:23;;;;;;;87.05;36.67;;;3.90;59.50;;;;;;5072175;28;20388;-72
2024/01/12 11:55:49;;;;;;;82.70;35.83;;;3.90;59.40;;;;;;5071938;28;20380;-73
2024/01/12 11:58:14;;;;;;;85.93;34.57;;;3.90;58.10;;;;;;5071902;28;20988;-74
2024/01/12 12:00:40;;;;;;;80.20;34.70;;;3.90;57.40;;;;;;5071878;28;20384;-72
2024/01/12 12:03:07;;;;;;;89.07;36.53;;;3.90;56.90;;;;;;5072142;28;20923;-72
2024/01/12 12:05:33;;;;;;;84.85;35.70;;;3.90;57.20;;;;;;5072230;28;20390;-73
2024/01/12 12:07:58;;;;;;;84.03;36.33;;;3.80;57.80;;;;;;5053928;28;20392;-72
2024/01/12 12:10:25;;;;;;;83.43;35.67;;;3.70;58.60;;;;;;5071595;28;20873;-72
2024/01/12 12:12:51;;;;;;;90.43;39.08;;;3.70;58.40;;;;;;5071344;28;20384;-73
2024/01/12 12:15:16;;;;;;;90.72;38.13;;;3.70;58.10;;;;;;5071633;28;20384;-72
2024/01/12 12:17:47;;;;;;;86.78;35.22;;;3.80;58.00;;;;;;5053582;28;20403;-73
2024/01/12 12:20:13;;;;;;;89.35;35.53;;;3.90;56.90;;;;;;5071844;28;20895;-74
2024/01/12 12:22:40;;;;;;;88.93;35.95;;;4.00;55.90;;;;;;5071769;28;20437;-73